Time;durP1;ratioP1;P1;durP2;ratioP2;P2;SDS_P1;SDS_P2;PMS_P1;PMS_P2;Temp;Humidity;BMP_temperature;BMP_pressure;BME280_temperature;BME280_humidity;BME280_pressure;Samples;Min_cycle;Max_cycle;Signal;HPM_P1;HPM_P2
2024/04/05 00:00:47;;;;;;;5.90;1.97;;;12.20;99.90;;;;;;5071909;28;20527;-70
2024/04/05 00:03:12;;;;;;;3.77;1.80;;;12.30;99.90;;;;;;5072179;28;20440;-70
2024/04/05 00:05:38;;;;;;;6.67;1.80;;;12.30;99.90;;;;;;5054305;28;20904;-70
2024/04/05 00:08:04;;;;;;;7.23;1.93;;;12.20;99.90;;;;;;5072000;28;20197;-70
2024/04/05 00:10:30;;;;;;;3.90;2.60;;;12.20;99.90;;;;;;5072132;28;20190;-70
2024/04/05 00:12:56;;;;;;;9.20;2.13;;;12.20;99.90;;;;;;5054187;28;20434;-70
2024/04/05 00:15:22;;;;;;;5.30;1.90;;;12.10;99.90;;;;;;5071973;28;20162;-70
2024/04/05 00:17:47;;;;;;;6.50;1.63;;;12.20;99.90;;;;;;5071914;28;20408;-71
2024/04/05 00:20:13;;;;;;;5.23;2.70;;;12.10;99.90;;;;;;5072091;28;20194;-70
2024/04/05 00:22:39;;;;;;;4.70;2.10;;;12.10;99.90;;;;;;5071957;28;20215;-70
2024/04/05 00:25:05;;;;;;;2.80;1.53;;;12.10;99.90;;;;;;5072035;28;20211;-71
2024/04/05 00:27:30;;;;;;;1.80;1.43;;;12.20;99.90;;;;;;5071809;28;20978;-70
2024/04/05 00:29:56;;;;;;;3.80;2.00;;;12.30;99.90;;;;;;5071507;28;20225;-70
2024/04/05 00:32:22;;;;;;;3.60;1.40;;;12.40;99.90;;;;;;5071675;28;20170;-71
2024/04/05 00:34:47;;;;;;;2.73;1.53;;;12.40;99.90;;;;;;5071992;28;20664;-71
2024/04/05 00:37:13;;;;;;;5.40;1.90;;;12.40;99.90;;;;;;5071854;28;20162;-71
2024/04/05 00:39:39;;;;;;;3.23;1.90;;;12.50;99.90;;;;;;5071603;28;20188;-71
2024/04/05 00:42:05;;;;;;;2.17;1.57;;;12.50;99.90;;;;;;5071721;28;20404;-70
2024/04/05 00:44:30;;;;;;;3.20;1.43;;;12.60;99.90;;;;;;5071881;28;20169;-70
2024/04/05 00:46:56;;;;;;;2.80;1.30;;;12.60;99.90;;;;;;5071715;28;20617;-71
2024/04/05 00:49:23;;;;;;;3.90;1.73;;;12.60;99.90;;;;;;5071378;28;20723;-71
2024/04/05 00:51:48;;;;;;;2.80;1.23;;;12.60;99.90;;;;;;5071616;28;20212;-70
2024/04/05 00:54:14;;;;;;;3.40;1.73;;;12.60;99.90;;;;;;5071654;28;20409;-70
2024/04/05 00:56:40;;;;;;;2.90;2.03;;;12.70;99.90;;;;;;5071719;28;20162;-71
2024/04/05 00:59:06;;;;;;;1.47;1.37;;;12.60;99.90;;;;;;5071217;28;20973;-71
2024/04/05 01:01:32;;;;;;;2.90;1.70;;;12.60;99.90;;;;;;5071581;28;20661;-70
2024/04/05 01:03:57;;;;;;;11.17;1.80;;;12.60;99.90;;;;;;5071656;28;20404;-70
2024/04/05 01:06:23;;;;;;;3.47;2.03;;;12.50;99.90;;;;;;5053622;28;20174;-70
2024/04/05 01:08:49;;;;;;;3.13;1.60;;;12.40;99.90;;;;;;5071065;28;20198;-70
2024/04/05 01:11:15;;;;;;;3.50;2.30;;;12.50;99.90;;;;;;5071503;28;20768;-71
2024/04/05 01:13:40;;;;;;;5.93;1.63;;;12.30;99.90;;;;;;5071443;28;20401;-71
2024/04/05 01:16:06;;;;;;;4.27;1.40;;;12.30;99.90;;;;;;5071443;28;20170;-70
2024/04/05 01:18:32;;;;;;;8.33;2.00;;;12.40;99.90;;;;;;5071118;28;20177;-70
2024/04/05 01:21:01;;;;;;;6.83;2.10;;;12.30;99.90;;;;;;5075141;28;20268;-71
2024/04/05 01:23:28;;;;;;;2.50;1.30;;;12.30;99.90;;;;;;5075236;28;20438;-70
2024/04/05 01:25:55;;;;;;;3.67;1.73;;;12.30;99.90;;;;;;5057590;28;20915;-71
2024/04/05 01:28:20;;;;;;;2.23;1.70;;;12.30;99.90;;;;;;5074795;28;20451;-71
2024/04/05 01:30:46;;;;;;;8.17;1.60;;;12.30;99.90;;;;;;5075052;28;20425;-70
2024/04/05 01:33:11;;;;;;;4.03;3.43;;;12.30;99.90;;;;;;5057101;28;20181;-71
2024/04/05 01:35:38;;;;;;;4.00;1.63;;;12.30;99.90;;;;;;5074943;28;20511;-71
2024/04/05 01:38:03;;;;;;;4.70;1.83;;;12.30;99.90;;;;;;5074653;28;20190;-71
2024/04/05 01:40:29;;;;;;;7.03;1.87;;;12.30;99.90;;;;;;5074852;28;20973;-70
2024/04/05 01:42:55;;;;;;;3.50;2.03;;;12.20;99.90;;;;;;5074708;28;20177;-71
2024/04/05 01:45:20;;;;;;;6.33;2.00;;;12.20;99.90;;;;;;5074679;28;20174;-71
2024/04/05 01:47:47;;;;;;;2.13;1.93;;;12.20;99.90;;;;;;5074422;28;20194;-70
2024/04/05 01:50:16;;;;;;;9.70;2.03;;;12.20;99.90;;;;;;5074644;28;20192;-71
2024/04/05 01:52:42;;;;;;;2.57;1.53;;;12.20;99.90;;;;;;5074943;28;20427;-71
2024/04/05 01:55:08;;;;;;;7.70;2.80;;;12.20;99.90;;;;;;5074579;28;20402;-71
2024/04/05 01:57:35;;;;;;;6.67;1.87;;;12.20;99.90;;;;;;5074675;28;20189;-70
2024/04/05 02:00:01;;;;;;;2.60;1.40;;;12.20;99.90;;;;;;5074091;28;20186;-71
2024/04/05 02:02:27;;;;;;;5.70;1.90;;;12.30;99.90;;;;;;5074297;28;20435;-71
2024/04/05 02:04:53;;;;;;;4.73;1.83;;;12.30;99.90;;;;;;5074370;28;20277;-71
2024/04/05 02:07:22;;;;;;;2.47;1.70;;;12.30;99.90;;;;;;5074275;28;20527;-70
2024/04/05 02:09:48;;;;;;;5.03;1.90;;;12.40;99.90;;;;;;5073988;28;20564;-71
2024/04/05 02:12:19;;;;;;;4.00;1.83;;;12.40;99.90;;;;;;5074219;28;20500;-71
2024/04/05 02:14:45;;;;;;;3.63;1.80;;;12.40;99.90;;;;;;5074332;28;20507;-71
2024/04/05 02:17:10;;;;;;;5.10;2.53;;;12.50;99.90;;;;;;5056027;28;20446;-70
2024/04/05 02:19:36;;;;;;;5.17;2.13;;;12.50;99.90;;;;;;5074004;28;20428;-70
2024/04/05 02:22:02;;;;;;;3.73;1.30;;;12.50;99.90;;;;;;5074222;28;20649;-71
2024/04/05 02:24:28;;;;;;;4.77;2.47;;;12.60;99.90;;;;;;5073900;28;20458;-71
2024/04/05 02:26:53;;;;;;;1.83;1.27;;;12.60;99.90;;;;;;5073780;28;20641;-71
2024/04/05 02:29:19;;;;;;;5.60;1.93;;;12.60;99.90;;;;;;5073601;28;20261;-71
2024/04/05 02:31:45;;;;;;;3.53;1.53;;;12.50;99.90;;;;;;5072680;28;20586;-70
2024/04/05 02:34:10;;;;;;;5.47;1.70;;;12.40;99.90;;;;;;5073863;28;20535;-70
2024/04/05 02:36:36;;;;;;;5.40;1.97;;;12.40;99.90;;;;;;5055868;28;20495;-70
2024/04/05 02:39:06;;;;;;;2.50;1.87;;;12.30;99.90;;;;;;5073437;28;20182;-70
2024/04/05 02:41:32;;;;;;;5.20;1.63;;;12.30;99.90;;;;;;5073709;28;20261;-70
2024/04/05 02:43:57;;;;;;;2.53;2.33;;;12.20;99.90;;;;;;5073617;28;20487;-71
2024/04/05 02:46:23;;;;;;;2.90;1.70;;;12.20;99.90;;;;;;5073670;28;20400;-70
2024/04/05 02:48:48;;;;;;;5.00;1.90;;;12.10;99.90;;;;;;5073401;28;20198;-70
2024/04/05 02:51:14;;;;;;;11.13;3.20;;;12.00;99.90;;;;;;5055714;28;20536;-70
2024/04/05 02:53:39;;;;;;;3.27;2.13;;;11.90;99.90;;;;;;5073562;28;20162;-70
2024/04/05 02:56:05;;;;;;;10.20;2.67;;;11.90;99.90;;;;;;5055557;28;20168;-70
2024/04/05 02:58:30;;;;;;;3.30;2.03;;;11.80;99.90;;;;;;5073054;28;20173;-70
2024/04/05 03:00:56;;;;;;;2.67;2.47;;;11.70;99.90;;;;;;5073230;28;20217;-71
2024/04/05 03:03:22;;;;;;;2.97;1.97;;;11.70;99.90;;;;;;5073346;28;20185;-71
2024/04/05 03:05:49;;;;;;;6.10;1.57;;;11.60;99.90;;;;;;5073333;28;20197;-71
2024/04/05 03:08:15;;;;;;;6.40;2.00;;;11.60;99.90;;;;;;5072880;28;20439;-70
2024/04/05 03:10:41;;;;;;;3.30;2.70;;;11.60;99.90;;;;;;5073192;28;20421;-71
2024/04/05 03:13:07;;;;;;;3.10;1.63;;;11.60;99.90;;;;;;5072965;28;20397;-70
2024/04/05 03:15:34;;;;;;;3.43;2.20;;;11.60;99.90;;;;;;5073058;28;20155;-70
2024/04/05 03:17:59;;;;;;;4.50;1.77;;;11.60;99.90;;;;;;5054871;28;20417;-70
2024/04/05 03:20:25;;;;;;;3.87;2.03;;;11.60;99.90;;;;;;5072942;28;20473;-70
2024/04/05 03:22:50;;;;;;;2.77;1.90;;;11.70;99.90;;;;;;5054899;28;20170;-71
2024/04/05 03:25:16;;;;;;;6.20;2.20;;;11.70;99.90;;;;;;5072837;28;20205;-71
2024/04/05 03:27:42;;;;;;;1.67;1.57;;;11.70;99.90;;;;;;5072489;28;20272;-71
2024/04/05 03:30:07;;;;;;;2.13;1.80;;;11.80;99.90;;;;;;5072687;28;20766;-71
2024/04/05 03:32:33;;;;;;;6.37;1.90;;;11.80;99.90;;;;;;5072868;28;20177;-70
2024/04/05 03:34:59;;;;;;;5.30;1.90;;;11.80;99.90;;;;;;5072774;28;20181;-71
2024/04/05 03:37:24;;;;;;;7.40;2.20;;;11.90;99.90;;;;;;5072617;28;20174;-71
2024/04/05 03:39:53;;;;;;;3.77;1.80;;;12.00;99.90;;;;;;5072222;28;20197;-71
2024/04/05 03:42:20;;;;;;;5.13;2.20;;;12.00;99.90;;;;;;5072088;28;20267;-71
2024/04/05 03:44:46;;;;;;;4.43;2.10;;;12.10;99.90;;;;;;5072488;28;20432;-71
2024/04/05 03:47:12;;;;;;;3.10;2.30;;;12.10;99.90;;;;;;5072515;28;21001;-71
2024/04/05 03:49:37;;;;;;;2.83;2.27;;;12.20;99.90;;;;;;5072164;28;20432;-70
2024/04/05 03:52:03;;;;;;;9.57;2.57;;;12.30;99.90;;;;;;5072452;28;20162;-71
2024/04/05 03:54:29;;;;;;;3.13;1.90;;;12.30;99.90;;;;;;5072175;28;20166;-71
2024/04/05 03:56:54;;;;;;;5.57;2.47;;;12.30;99.90;;;;;;5072130;28;20166;-71
2024/04/05 03:59:20;;;;;;;11.50;3.23;;;12.30;99.90;;;;;;5072128;28;20182;-71
2024/04/05 04:01:45;;;;;;;4.53;2.60;;;12.30;99.90;;;;;;5072467;28;20182;-71
2024/04/05 04:04:11;;;;;;;10.50;2.70;;;12.30;99.90;;;;;;5072194;28;20162;-70
2024/04/05 04:06:36;;;;;;;3.27;2.80;;;12.40;99.90;;;;;;5072212;28;20173;-71
2024/04/05 04:09:02;;;;;;;5.70;2.23;;;12.40;99.90;;;;;;5071679;28;20201;-70
2024/04/05 04:11:28;;;;;;;8.93;2.67;;;12.30;99.90;;;;;;5071992;28;20173;-70
2024/04/05 04:13:54;;;;;;;5.03;2.53;;;12.30;99.90;;;;;;5072191;28;20404;-70
2024/04/05 04:16:20;;;;;;;7.53;3.27;;;12.30;99.90;;;;;;5072061;28;20170;-70
2024/04/05 04:18:47;;;;;;;4.33;2.90;;;12.30;99.90;;;;;;5071713;28;20178;-70
2024/04/05 04:21:12;;;;;;;8.50;3.00;;;12.30;99.90;;;;;;5072178;28;20416;-70
2024/04/05 04:23:38;;;;;;;4.20;2.53;;;12.20;99.90;;;;;;5072087;28;20409;-70
2024/04/05 04:26:05;;;;;;;7.50;3.00;;;12.20;99.90;;;;;;5071849;28;20260;-71
2024/04/05 04:28:32;;;;;;;4.60;2.40;;;12.20;99.90;;;;;;5071859;28;20665;-70
2024/04/05 04:31:15;;;;;;;6.87;3.43;;;12.20;99.90;;;;;;5071762;28;20919;-70
2024/04/05 04:33:40;;;;;;;6.13;3.00;;;12.20;99.90;;;;;;5053901;28;20404;-71
2024/04/05 04:36:06;;;;;;;13.83;3.90;;;12.10;99.90;;;;;;5053928;28;20416;-70
2024/04/05 04:38:32;;;;;;;6.70;2.60;;;12.10;99.90;;;;;;5071682;28;20257;-70
2024/04/05 04:40:57;;;;;;;5.93;2.97;;;12.10;99.90;;;;;;5071581;28;20719;-71
2024/04/05 04:43:23;;;;;;;8.90;3.13;;;12.00;99.90;;;;;;5053772;28;20461;-70
2024/04/05 04:45:48;;;;;;;17.23;3.13;;;12.00;99.90;;;;;;5071858;28;20166;-71
2024/04/05 04:48:14;;;;;;;5.90;3.00;;;12.10;99.90;;;;;;5071292;28;20190;-70
2024/04/05 04:50:39;;;;;;;6.83;3.10;;;12.10;99.90;;;;;;5071588;28;20723;-71
2024/04/05 04:53:05;;;;;;;7.40;3.37;;;12.20;99.90;;;;;;5071516;28;20165;-71
2024/04/05 04:55:30;;;;;;;3.80;3.10;;;12.10;99.90;;;;;;5074813;28;20185;-70
2024/04/05 04:57:56;;;;;;;12.40;3.57;;;12.20;99.90;;;;;;5075501;28;20546;-71
2024/04/05 05:00:21;;;;;;;4.10;2.60;;;12.20;99.90;;;;;;5075455;28;20186;-71
2024/04/05 05:02:47;;;;;;;5.23;2.97;;;12.20;99.90;;;;;;5075604;28;20241;-70
2024/04/05 05:05:12;;;;;;;5.83;4.47;;;12.20;99.90;;;;;;5075534;28;20173;-70
2024/04/05 05:07:39;;;;;;;5.40;3.13;;;12.20;99.90;;;;;;5075349;28;20193;-70
2024/04/05 05:10:06;;;;;;;6.43;4.30;;;12.10;99.90;;;;;;5075386;28;20186;-70
2024/04/05 05:12:31;;;;;;;4.40;3.20;;;12.10;99.90;;;;;;5057640;28;20400;-71
2024/04/05 05:14:57;;;;;;;5.07;3.33;;;12.00;99.90;;;;;;5057419;28;20409;-71
2024/04/05 05:17:22;;;;;;;4.70;2.93;;;12.00;99.90;;;;;;5075239;28;20261;-71
2024/04/05 05:19:49;;;;;;;6.20;3.93;;;11.90;99.90;;;;;;5074974;28;20190;-71
2024/04/05 05:22:14;;;;;;;3.53;2.70;;;11.90;99.90;;;;;;5075187;28;20599;-71
2024/04/05 05:24:40;;;;;;;9.00;3.43;;;11.90;99.90;;;;;;5075100;28;20411;-71
2024/04/05 05:27:05;;;;;;;8.13;4.27;;;11.90;99.90;;;;;;5075001;28;20220;-71
2024/04/05 05:29:31;;;;;;;13.57;3.47;;;12.00;99.90;;;;;;5056910;28;20213;-71
2024/04/05 05:31:56;;;;;;;6.30;3.03;;;12.00;99.90;;;;;;5075037;28;20595;-71
2024/04/05 05:34:22;;;;;;;4.80;2.20;;;12.10;99.90;;;;;;5074956;28;20192;-71
2024/04/05 05:36:47;;;;;;;7.43;2.90;;;12.20;99.90;;;;;;5074932;28;20162;-71
2024/04/05 05:39:13;;;;;;;10.53;2.70;;;12.30;99.90;;;;;;5074693;28;20525;-71
2024/04/05 05:41:39;;;;;;;5.13;3.40;;;12.40;99.90;;;;;;5074948;28;20166;-71
2024/04/05 05:44:04;;;;;;;2.80;2.23;;;12.40;99.90;;;;;;5074757;28;20163;-71
2024/04/05 05:46:30;;;;;;;8.43;2.93;;;12.50;99.90;;;;;;5074739;28;20162;-71
2024/04/05 05:48:55;;;;;;;6.30;2.87;;;12.60;99.90;;;;;;5074445;28;20216;-71
2024/04/05 05:51:21;;;;;;;5.60;2.43;;;12.70;99.90;;;;;;5074878;28;20166;-71
2024/04/05 05:53:47;;;;;;;4.50;2.63;;;12.80;99.90;;;;;;5074494;28;20630;-71
2024/04/05 05:56:12;;;;;;;8.53;2.70;;;12.80;99.90;;;;;;5074777;28;20575;-70
2024/04/05 05:58:39;;;;;;;4.80;2.00;;;12.90;99.90;;;;;;5074447;28;20237;-70
2024/04/05 06:01:08;;;;;;;4.43;3.77;;;12.90;99.90;;;;;;5074335;28;20775;-71
2024/04/05 06:03:34;;;;;;;7.50;2.20;;;12.90;99.90;;;;;;5074412;28;20404;-71
2024/04/05 06:06:02;;;;;;;5.37;2.10;;;13.10;99.90;;;;;;5074184;28;20400;-71
2024/04/05 06:08:28;;;;;;;4.03;2.10;;;13.20;99.90;;;;;;5074076;28;21030;-71
2024/04/05 06:10:58;;;;;;;8.33;2.77;;;13.40;99.90;;;;;;5074312;28;20452;-71
2024/04/05 06:13:24;;;;;;;5.80;3.33;;;13.50;99.90;;;;;;5074286;28;20443;-70
2024/04/05 06:15:58;;;;;;;4.37;3.00;;;13.70;99.90;;;;;;5074150;28;20432;-70
2024/04/05 06:18:26;;;;;;;4.57;2.70;;;14.00;99.90;;;;;;5056134;28;20415;-70
2024/04/05 06:20:52;;;;;;;6.47;2.67;;;14.40;99.90;;;;;;5074083;28;20433;-71
2024/04/05 06:23:18;;;;;;;4.33;2.17;;;14.60;99.90;;;;;;5074108;28;20433;-71
2024/04/05 06:25:54;;;;;;;12.83;2.97;;;14.80;99.90;;;;;;5074257;28;20432;-71
2024/04/05 06:28:20;;;;;;;7.00;2.20;;;14.90;99.90;;;;;;5073868;28;20193;-71
2024/04/05 06:30:46;;;;;;;6.03;2.37;;;14.90;99.90;;;;;;5074054;28;20527;-70
2024/04/05 06:33:12;;;;;;;4.70;1.93;;;15.00;99.90;;;;;;5073784;28;20921;-70
2024/04/05 06:35:37;;;;;;;3.10;1.90;;;15.00;99.90;;;;;;5070401;28;20169;-71
2024/04/05 06:38:03;;;;;;;3.50;2.13;;;14.90;99.90;;;;;;5068282;28;20178;-71
2024/04/05 06:40:29;;;;;;;6.20;3.20;;;14.90;99.90;;;;;;5073526;28;20204;-70
2024/04/05 06:42:54;;;;;;;8.00;2.50;;;14.90;99.90;;;;;;5073760;28;20174;-70
2024/04/05 06:45:20;;;;;;;8.17;3.50;;;14.90;99.90;;;;;;5073294;28;20178;-70
2024/04/05 06:47:46;;;;;;;4.70;2.43;;;14.90;99.90;;;;;;5055320;28;20194;-70
2024/04/05 06:50:11;;;;;;;9.83;3.20;;;14.90;99.90;;;;;;5055213;28;20443;-72
2024/04/05 06:52:37;;;;;;;7.60;3.40;;;15.00;99.90;;;;;;5073302;28;20610;-70
2024/04/05 06:55:02;;;;;;;11.73;2.73;;;15.00;99.90;;;;;;5073126;28;20175;-70
2024/04/05 06:57:28;;;;;;;3.97;2.27;;;15.20;99.90;;;;;;5073461;28;20174;-71
2024/04/05 06:59:54;;;;;;;10.53;2.70;;;15.10;99.90;;;;;;5073048;28;20575;-71
2024/04/05 07:02:21;;;;;;;8.73;2.70;;;15.30;99.90;;;;;;5055144;28;20479;-73
2024/04/05 07:04:46;;;;;;;3.83;1.97;;;15.10;99.90;;;;;;5073259;28;20194;-71
2024/04/05 07:07:12;;;;;;;7.20;2.23;;;15.20;99.90;;;;;;5073181;28;20480;-72
2024/04/05 07:09:37;;;;;;;3.43;2.03;;;15.30;99.90;;;;;;5055193;28;20186;-71
2024/04/05 07:12:04;;;;;;;5.93;2.33;;;15.30;99.90;;;;;;5073208;28;20513;-70
2024/04/05 07:14:30;;;;;;;9.43;2.17;;;15.30;99.90;;;;;;5055038;28;20174;-73
2024/04/05 07:16:56;;;;;;;6.30;2.40;;;15.30;99.90;;;;;;5072401;28;20438;-72
2024/04/05 07:19:22;;;;;;;8.77;2.67;;;15.30;99.90;;;;;;5072684;28;20190;-72
2024/04/05 07:21:48;;;;;;;5.27;2.90;;;15.30;99.90;;;;;;5067799;28;20295;-72
2024/04/05 07:24:14;;;;;;;3.97;2.47;;;15.40;99.90;;;;;;5072711;28;20440;-70
2024/04/05 07:26:40;;;;;;;2.00;1.80;;;15.60;99.90;;;;;;5072857;28;20245;-73
2024/04/05 07:29:06;;;;;;;4.00;1.93;;;15.50;99.90;;;;;;5072381;28;20946;-70
2024/04/05 07:31:36;;;;;;;4.57;2.10;;;15.60;99.90;;;;;;5072729;28;20895;-70
2024/04/05 07:34:02;;;;;;;2.53;1.93;;;15.70;99.90;;;;;;5072999;28;20257;-70
2024/04/05 07:36:28;;;;;;;5.80;2.17;;;15.90;99.90;;;;;;5072574;28;20539;-70
2024/04/05 07:38:54;;;;;;;6.93;2.90;;;16.00;99.90;;;;;;5062618;28;20424;-70
2024/04/05 07:41:19;;;;;;;6.63;3.23;;;16.10;99.90;;;;;;5072405;28;20791;-70
2024/04/05 07:43:45;;;;;;;9.50;3.00;;;16.20;99.90;;;;;;5072242;28;20196;-71
2024/04/05 07:46:10;;;;;;;2.73;2.10;;;16.20;99.90;;;;;;5072438;28;20166;-71
2024/04/05 07:48:36;;;;;;;5.17;2.70;;;16.30;99.90;;;;;;5072182;28;20198;-70
2024/04/05 07:51:04;;;;;;;6.40;2.50;;;16.40;99.90;;;;;;5072317;28;20566;-70
2024/04/05 07:53:29;;;;;;;1.90;1.67;;;16.40;99.90;;;;;;5072437;28;20169;-70
2024/04/05 07:55:55;;;;;;;5.33;1.90;;;16.50;99.90;;;;;;5072350;28;20499;-71
2024/04/05 07:58:21;;;;;;;11.30;2.80;;;16.40;99.90;;;;;;5072394;28;20249;-70
2024/04/05 08:00:48;;;;;;;8.57;2.07;;;16.40;99.90;;;;;;5072087;28;20997;-71
2024/04/05 08:03:13;;;;;;;2.93;1.70;;;16.30;99.90;;;;;;5054063;28;20583;-70
2024/04/05 08:05:39;;;;;;;4.37;2.00;;;16.10;99.90;;;;;;5072257;28;20407;-70
2024/04/05 08:08:05;;;;;;;5.83;2.20;;;16.00;99.90;;;;;;5071997;28;20194;-72
2024/04/05 08:10:30;;;;;;;7.83;2.10;;;15.90;99.90;;;;;;5072037;28;20281;-70
2024/04/05 08:13:00;;;;;;;7.67;1.60;;;15.80;99.90;;;;;;5072226;28;20212;-71
2024/04/05 08:15:26;;;;;;;5.20;2.20;;;15.90;99.90;;;;;;5054064;28;20173;-70
2024/04/05 08:17:52;;;;;;;3.50;1.50;;;15.90;99.90;;;;;;5053836;28;20412;-70
2024/04/05 08:20:19;;;;;;;3.93;1.60;;;15.80;99.90;;;;;;5071915;28;20424;-71
2024/04/05 08:22:44;;;;;;;3.40;2.00;;;15.80;99.90;;;;;;5072016;28;20162;-69
2024/04/05 08:25:10;;;;;;;3.40;1.80;;;15.80;99.90;;;;;;5072152;28;20400;-70
2024/04/05 08:27:36;;;;;;;5.50;2.17;;;15.80;99.90;;;;;;5071833;28;20564;-70
2024/04/05 08:30:02;;;;;;;2.17;1.40;;;15.70;99.90;;;;;;5071833;28;20179;-71
2024/04/05 08:32:28;;;;;;;6.60;2.00;;;15.80;99.90;;;;;;5071945;28;20401;-69
2024/04/05 08:34:53;;;;;;;4.20;1.50;;;15.90;99.90;;;;;;5070091;28;20209;-71
2024/04/05 08:37:19;;;;;;;1.90;1.50;;;15.90;99.90;;;;;;5053622;28;20223;-70
2024/04/05 08:39:44;;;;;;;3.33;1.83;;;15.90;99.90;;;;;;5071230;28;20221;-70
2024/04/05 08:42:17;;;;;;;3.87;1.50;;;16.00;99.90;;;;;;5053883;28;20202;-70
2024/04/05 08:44:45;;;;;;;2.70;1.37;;;16.00;99.90;;;;;;5071808;28;20647;-71
2024/04/05 08:47:10;;;;;;;5.57;1.30;;;16.00;99.90;;;;;;5071288;28;20408;-70
2024/04/05 08:49:37;;;;;;;4.97;1.73;;;16.00;99.90;;;;;;5070956;28;20780;-71
2024/04/05 08:52:03;;;;;;;5.47;1.33;;;16.10;99.90;;;;;;5053486;28;20524;-70
2024/04/05 08:54:33;;;;;;;1.77;1.63;;;16.30;99.90;;;;;;5053684;28;20409;-71
2024/04/05 08:57:00;;;;;;;2.30;1.10;;;16.50;99.90;;;;;;5072182;28;20779;-70
2024/04/05 08:59:29;;;;;;;2.67;1.40;;;16.70;99.90;;;;;;5071018;28;20424;-70
2024/04/05 09:01:59;;;;;;;3.43;1.73;;;16.70;99.90;;;;;;5071306;28;20424;-70
2024/04/05 09:04:31;;;;;;;3.00;1.33;;;16.60;99.90;;;;;;5071505;28;20773;-71
2024/04/05 09:06:58;;;;;;;2.23;1.53;;;16.80;99.90;;;;;;5071607;28;20809;-70
2024/04/05 09:09:28;;;;;;;5.00;2.80;;;17.00;99.90;;;;;;5071560;28;20941;-71
2024/04/05 09:12:01;;;;;;;4.90;2.13;;;17.20;99.90;;;;;;5071589;28;20423;-70
2024/04/05 09:14:27;;;;;;;5.30;2.03;;;17.50;99.90;;;;;;5070979;28;20408;-70
2024/04/05 09:16:53;;;;;;;2.63;1.80;;;17.80;99.90;;;;;;5071171;28;20450;-70
2024/04/05 09:19:19;;;;;;;11.47;1.60;;;18.10;99.90;;;;;;5071130;28;20503;-72
2024/04/05 09:21:45;;;;;;;6.40;1.47;;;18.50;99.90;;;;;;5068810;28;20561;-70
2024/04/05 09:24:11;;;;;;;2.60;1.50;;;18.80;99.90;;;;;;5060683;28;20193;-71
2024/04/05 09:26:36;;;;;;;3.40;1.73;;;18.90;99.90;;;;;;5071119;28;20190;-71
2024/04/05 09:29:03;;;;;;;3.00;1.37;;;18.70;99.90;;;;;;5070455;28;20510;-70
2024/04/05 09:31:30;;;;;;;2.97;2.67;;;18.50;99.90;;;;;;5071243;28;20163;-70
2024/04/05 09:34:14;;;;;;;2.33;1.47;;;18.10;99.90;;;;;;5070595;28;20791;-70
2024/04/05 09:36:41;;;;;;;4.63;2.20;;;17.70;99.90;;;;;;5071257;28;20880;-70
2024/04/05 09:39:13;;;;;;;4.10;2.67;;;17.40;99.90;;;;;;5069787;28;20482;-71
2024/04/05 09:41:39;;;;;;;3.87;1.50;;;17.10;99.90;;;;;;5059952;28;20408;-70
2024/04/05 09:44:07;;;;;;;6.73;2.00;;;17.00;99.90;;;;;;5074542;28;20411;-70
2024/04/05 09:46:34;;;;;;;3.93;2.53;;;16.80;99.90;;;;;;5074228;28;20399;-71
2024/04/05 09:49:01;;;;;;;4.60;1.57;;;16.80;99.90;;;;;;5074096;28;20455;-70
2024/04/05 09:51:44;;;;;;;3.13;1.93;;;16.80;99.90;;;;;;5074343;28;20931;-70
2024/04/05 09:54:15;;;;;;;3.00;1.63;;;16.80;99.90;;;;;;5074091;28;20767;-70
2024/04/05 09:56:43;;;;;;;7.40;2.10;;;16.80;99.90;;;;;;5074517;28;20462;-70
2024/04/05 09:59:28;;;;;;;3.57;2.07;;;16.90;99.90;;;;;;5073906;28;20895;-71
2024/04/05 10:01:54;;;;;;;4.50;2.27;;;17.00;99.90;;;;;;5068566;28;20440;-71
2024/04/05 10:04:20;;;;;;;1.80;1.50;;;17.20;99.90;;;;;;5056306;28;20420;-70
2024/04/05 10:06:45;;;;;;;2.60;1.33;;;17.40;99.90;;;;;;5074244;28;20408;-70
2024/04/05 10:09:21;;;;;;;4.07;1.37;;;17.60;99.90;;;;;;5073740;28;20210;-71
2024/04/05 10:11:50;;;;;;;2.40;2.13;;;17.70;99.90;;;;;;5074171;28;20173;-71
2024/04/05 10:14:25;;;;;;;4.77;2.03;;;17.70;99.90;;;;;;5073952;28;20458;-71
2024/04/05 10:16:52;;;;;;;2.40;1.63;;;17.80;99.90;;;;;;5070283;28;20422;-70
2024/04/05 10:19:19;;;;;;;1.53;1.43;;;17.80;99.90;;;;;;5071210;28;20955;-70
2024/04/05 10:21:48;;;;;;;4.13;1.70;;;17.90;99.90;;;;;;5072205;28;20485;-70
2024/04/05 10:24:16;;;;;;;6.30;2.37;;;17.90;99.90;;;;;;5051049;28;20874;-71
2024/04/05 10:26:52;;;;;;;3.27;1.50;;;17.80;99.90;;;;;;5079010;28;20504;-71
2024/04/05 10:29:17;;;;;;;2.83;1.00;;;17.80;99.90;;;;;;5073503;28;20463;-71
2024/04/05 10:31:43;;;;;;;2.87;1.10;;;17.70;99.90;;;;;;5073896;28;20415;-70
2024/04/05 10:34:09;;;;;;;2.20;1.07;;;17.90;99.90;;;;;;5074076;28;20166;-70
2024/04/05 10:36:37;;;;;;;1.80;1.30;;;17.90;99.90;;;;;;5070074;28;20224;-70
2024/04/05 10:39:17;;;;;;;2.00;1.50;;;18.00;99.90;;;;;;5073344;28;20627;-71
2024/04/05 10:41:43;;;;;;;2.97;1.30;;;18.20;99.90;;;;;;5073593;28;20432;-70
2024/04/05 10:44:09;;;;;;;2.93;1.50;;;18.40;99.90;;;;;;5073877;28;20401;-72
2024/04/05 10:46:36;;;;;;;1.20;1.10;;;18.50;99.90;;;;;;5055939;28;20425;-72
2024/04/05 10:49:02;;;;;;;1.70;1.30;;;18.70;99.90;;;;;;5073274;28;20451;-72
2024/04/05 10:51:28;;;;;;;3.07;1.50;;;18.80;99.90;;;;;;5072677;28;20396;-72
2024/04/05 10:53:54;;;;;;;2.90;1.83;;;19.00;99.90;;;;;;5073305;28;20741;-72
2024/04/05 10:56:20;;;;;;;2.50;1.30;;;19.00;99.90;;;;;;5073424;28;20703;-73
2024/04/05 10:58:46;;;;;;;1.30;1.10;;;19.00;99.90;;;;;;5073256;28;20423;-72
2024/04/05 11:01:17;;;;;;;2.80;1.10;;;19.00;99.90;;;;;;5072900;28;20424;-72
2024/04/05 11:03:43;;;;;;;1.17;1.00;;;19.00;99.90;;;;;;5072977;28;20432;-72
2024/04/05 11:06:08;;;;;;;2.13;1.13;;;18.90;99.90;;;;;;5073399;28;20435;-71
2024/04/05 11:08:34;;;;;;;3.53;1.40;;;18.80;99.90;;;;;;5072584;28;20194;-71
2024/04/05 11:11:07;;;;;;;1.43;1.20;;;18.90;99.90;;;;;;5073092;28;20557;-72
2024/04/05 11:13:32;;;;;;;2.20;1.30;;;19.00;99.90;;;;;;5072871;28;20166;-71
2024/04/05 11:16:04;;;;;;;2.10;1.20;;;19.00;99.90;;;;;;5072773;28;20914;-72
2024/04/05 11:18:39;;;;;;;3.20;1.33;;;19.10;99.90;;;;;;5072681;28;20237;-72
2024/04/05 11:21:05;;;;;;;2.43;1.13;;;19.10;99.90;;;;;;5072592;28;20546;-72
2024/04/05 11:23:30;;;;;;;1.93;1.20;;;19.10;99.90;;;;;;5072842;28;20491;-72
2024/04/05 11:25:57;;;;;;;1.20;0.90;;;19.10;99.90;;;;;;5072850;28;20408;-71
2024/04/05 11:28:23;;;;;;;1.20;1.07;;;18.90;99.90;;;;;;5072280;28;20864;-71
2024/04/05 11:30:52;;;;;;;5.00;1.60;;;19.00;99.90;;;;;;5072299;28;20474;-72
2024/04/05 11:33:18;;;;;;;2.50;1.33;;;19.00;99.90;;;;;;5072643;28;20407;-72
2024/04/05 11:35:44;;;;;;;2.47;1.30;;;18.90;99.90;;;;;;5071894;28;20772;-72
2024/04/05 11:38:11;;;;;;;1.30;0.90;;;18.90;99.90;;;;;;5072010;28;20499;-72
2024/04/05 11:40:38;;;;;;;1.67;1.03;;;18.90;99.90;;;;;;5054121;28;20803;-71
2024/04/05 11:43:08;;;;;;;3.10;1.30;;;18.90;99.90;;;;;;5072344;28;20401;-71
2024/04/05 11:45:33;;;;;;;2.37;1.10;;;19.10;99.90;;;;;;5072542;28;20896;-73
2024/04/05 11:47:59;;;;;;;2.90;1.40;;;19.30;99.90;;;;;;5071617;28;20451;-71
2024/04/05 11:50:24;;;;;;;3.60;1.20;;;19.40;99.90;;;;;;5072125;28;20190;-72
2024/04/05 11:52:50;;;;;;;1.50;1.30;;;19.50;99.90;;;;;;5071656;28;20233;-72
2024/04/05 11:55:17;;;;;;;1.20;1.10;;;19.70;99.90;;;;;;5072226;28;20570;-72
2024/04/05 11:57:43;;;;;;;1.67;1.17;;;19.70;99.90;;;;;;5072088;28;20166;-72
2024/04/05 12:00:12;;;;;;;3.43;1.37;;;19.70;99.90;;;;;;5053930;28;20850;-72
2024/04/05 12:02:41;;;;;;;1.70;1.50;;;19.70;99.90;;;;;;5071638;28;20588;-72
2024/04/05 12:05:11;;;;;;;2.57;1.20;;;19.70;99.90;;;;;;5071680;28;20465;-72
2024/04/05 12:07:37;;;;;;;2.10;1.10;;;19.70;99.90;;;;;;5072233;28;20440;-72
2024/04/05 12:10:03;;;;;;;4.20;1.13;;;19.50;99.90;;;;;;5072001;28;20423;-73
2024/04/05 12:12:30;;;;;;;1.30;0.90;;;19.50;99.90;;;;;;5071980;28;20405;-72
2024/04/05 12:14:56;;;;;;;3.47;1.50;;;19.40;99.90;;;;;;5072141;28;20416;-71
2024/04/05 12:17:22;;;;;;;1.40;1.00;;;19.30;99.90;;;;;;5071190;28;20492;-71
2024/04/05 12:19:50;;;;;;;2.40;1.20;;;19.00;99.90;;;;;;5071591;28;20562;-71
2024/04/05 12:22:16;;;;;;;3.73;1.47;;;18.90;99.90;;;;;;5071816;28;20186;-72
2024/04/05 12:24:45;;;;;;;6.30;1.30;;;18.90;99.90;;;;;;5071938;28;20404;-72
2024/04/05 12:27:11;;;;;;;1.43;1.00;;;18.90;99.90;;;;;;5071768;28;20607;-72
2024/04/05 12:29:37;;;;;;;1.43;1.10;;;18.70;99.90;;;;;;5071526;28;20510;-71
2024/04/05 12:32:03;;;;;;;2.50;1.20;;;18.70;99.90;;;;;;5053929;28;20440;-72
2024/04/05 12:34:29;;;;;;;1.47;0.80;;;18.60;99.90;;;;;;5053958;28;20166;-72
2024/04/05 12:36:54;;;;;;;1.83;0.90;;;18.60;99.90;;;;;;5071815;28;20774;-72
2024/04/05 12:39:28;;;;;;;1.30;0.90;;;18.50;99.90;;;;;;5071510;28;20466;-71
2024/04/05 12:41:54;;;;;;;1.10;0.93;;;18.70;99.90;;;;;;5071476;28;20174;-73